createdAt,value
2023-03-17T00:00:10.283Z,31.55
2023-03-17T00:02:36.858Z,31.67
2023-03-17T00:05:06.917Z,32.35
2023-03-17T00:07:34.663Z,37.10
2023-03-17T00:10:01.064Z,39.63
2023-03-17T00:12:27.452Z,42.00
2023-03-17T00:14:53.920Z,47.33
2023-03-17T00:17:20.318Z,40.22
2023-03-17T00:19:46.706Z,32.88
2023-03-17T00:22:15.188Z,34.65
2023-03-17T00:24:42.951Z,41.00
2023-03-17T00:27:10.536Z,32.40
2023-03-17T00:29:36.919Z,38.78
2023-03-17T00:32:03.499Z,34.20
2023-03-17T00:34:29.926Z,36.97
2023-03-17T00:36:56.358Z,29.25
2023-03-17T00:39:22.778Z,29.58
2023-03-17T00:41:50.495Z,31.10
2023-03-17T00:44:16.932Z,32.63
2023-03-17T00:46:43.369Z,32.50
2023-03-17T00:49:13.180Z,28.60
2023-03-17T00:51:39.633Z,30.42
2023-03-17T00:54:06.044Z,28.17
2023-03-17T00:56:32.445Z,32.85
2023-03-17T00:59:00.194Z,25.75
2023-03-17T01:01:26.613Z,26.35
2023-03-17T01:03:53.044Z,28.90
2023-03-17T01:06:19.452Z,26.98
2023-03-17T01:08:46.030Z,25.73
2023-03-17T01:11:14.197Z,26.27
2023-03-17T01:13:40.584Z,29.10
2023-03-17T01:16:10.271Z,23.83
2023-03-17T01:21:03.287Z,26.40
2023-03-17T01:23:29.654Z,27.75
2023-03-17T01:25:56.043Z,27.15
2023-03-17T01:28:22.474Z,22.55
2023-03-17T01:30:48.881Z,26.80
2023-03-17T01:33:16.658Z,23.88
2023-03-17T01:35:43.344Z,27.35
2023-03-17T01:38:09.778Z,32.75
2023-03-17T01:40:37.282Z,24.67
2023-03-17T01:43:15.100Z,28.92
2023-03-17T01:46:00.319Z,28.13
2023-03-17T01:48:28.688Z,25.23
2023-03-17T01:50:55.986Z,26.48
2023-03-17T01:53:22.663Z,26.40
2023-03-17T01:55:50.208Z,24.70
2023-03-17T01:58:16.845Z,25.27
2023-03-17T02:00:43.325Z,22.58
2023-03-17T02:03:09.844Z,24.23
2023-03-17T02:05:38.760Z,26.35
2023-03-17T02:08:08.633Z,29.67
2023-03-17T02:10:36.177Z,26.20
2023-03-17T02:13:03.174Z,24.73
2023-03-17T02:15:36.493Z,26.75
2023-03-17T02:18:02.859Z,24.42
2023-03-17T02:20:47.716Z,25.35
2023-03-17T02:23:17.327Z,26.42
2023-03-17T02:28:10.904Z,24.02
2023-03-17T02:30:37.311Z,23.48
2023-03-17T02:33:03.762Z,21.33
2023-03-17T02:35:30.227Z,22.95
2023-03-17T02:37:56.866Z,30.10
2023-03-17T02:40:24.647Z,27.48
2023-03-17T02:42:51.185Z,27.25
2023-03-17T02:45:17.624Z,27.30
2023-03-17T02:47:43.973Z,28.73
2023-03-17T02:50:15.000Z,25.90
2023-03-17T02:52:41.392Z,27.75
2023-03-17T02:55:08.184Z,26.65
2023-03-17T02:57:36.090Z,27.95
2023-03-17T03:00:02.453Z,27.35
2023-03-17T03:02:28.839Z,31.00
2023-03-17T03:04:55.415Z,24.73
2023-03-17T03:07:22.133Z,28.58
2023-03-17T03:09:48.520Z,30.67
2023-03-17T03:12:14.914Z,26.95
2023-03-17T03:14:42.655Z,29.90
2023-03-17T03:17:09.070Z,26.92
2023-03-17T03:19:35.574Z,23.42
2023-03-17T03:22:02.296Z,27.85
2023-03-17T03:24:28.632Z,27.35
2023-03-17T03:26:55.039Z,27.00
2023-03-17T03:29:21.422Z,30.05
2023-03-17T03:31:49.178Z,26.35
2023-03-17T03:34:15.690Z,25.65
2023-03-17T03:36:42.134Z,27.33
2023-03-17T03:39:08.565Z,25.73
2023-03-17T03:41:35.071Z,25.40
2023-03-17T03:44:01.685Z,27.92
2023-03-17T03:46:28.216Z,24.25
2023-03-17T03:48:56.004Z,22.25
2023-03-17T03:51:22.451Z,21.92
2023-03-17T03:53:48.897Z,24.80
2023-03-17T03:56:15.276Z,24.58
2023-03-17T03:58:41.649Z,20.08
2023-03-17T04:01:09.014Z,22.88
2023-03-17T04:03:35.756Z,22.95
2023-03-17T04:06:03.829Z,21.95
2023-03-17T04:08:30.250Z,21.52
2023-03-17T04:10:56.654Z,22.55
2023-03-17T04:13:23.112Z,25.48
2023-03-17T04:15:49.664Z,25.15
2023-03-17T04:18:16.114Z,24.88
2023-03-17T04:20:42.583Z,26.80
2023-03-17T04:23:10.330Z,25.25
2023-03-17T04:25:36.763Z,23.20
2023-03-17T04:28:03.217Z,23.30
2023-03-17T04:30:29.858Z,26.15
2023-03-17T04:32:56.442Z,27.25
2023-03-17T04:35:22.896Z,24.67
2023-03-17T04:37:49.420Z,25.85
2023-03-17T04:40:18.418Z,26.13
2023-03-17T04:42:45.112Z,28.58
2023-03-17T04:45:12.383Z,22.98
2023-03-17T04:47:38.866Z,24.10
2023-03-17T04:50:05.780Z,28.48
2023-03-17T04:52:32.197Z,26.92
2023-03-17T04:54:58.614Z,25.23
2023-03-17T04:57:26.433Z,26.38
2023-03-17T04:59:52.827Z,34.10
2023-03-17T05:02:19.314Z,31.65
2023-03-17T05:04:45.771Z,29.52
2023-03-17T05:07:12.205Z,27.73
2023-03-17T05:09:38.581Z,27.77
2023-03-17T05:12:05.576Z,27.10
2023-03-17T05:14:33.364Z,31.67
2023-03-17T05:16:59.757Z,28.55
2023-03-17T05:19:26.186Z,33.45
2023-03-17T05:21:52.597Z,30.23
2023-03-17T05:24:19.240Z,26.05
2023-03-17T05:26:45.643Z,27.02
2023-03-17T05:29:12.054Z,26.08
2023-03-17T05:31:40.060Z,32.15
2023-03-17T05:34:06.498Z,32.17
2023-03-17T05:36:32.965Z,34.83
2023-03-17T05:38:59.418Z,28.10
2023-03-17T05:41:25.783Z,30.77
2023-03-17T05:43:52.198Z,35.60
2023-03-17T05:46:20.372Z,32.22
2023-03-17T05:48:48.360Z,32.25
2023-03-17T05:51:15.108Z,30.88
2023-03-17T05:53:41.600Z,27.58
2023-03-17T05:56:08.171Z,29.38
2023-03-17T05:58:34.635Z,30.40
2023-03-17T06:01:01.036Z,28.90
2023-03-17T06:03:27.609Z,28.02
2023-03-17T06:05:55.555Z,32.45
2023-03-17T06:08:21.950Z,30.60
2023-03-17T06:10:48.343Z,29.50
2023-03-17T06:13:14.713Z,31.70
2023-03-17T06:15:41.320Z,29.42
2023-03-17T06:18:07.749Z,30.60
2023-03-17T06:20:34.553Z,33.72
2023-03-17T06:23:05.905Z,31.42
2023-03-17T06:25:33.407Z,32.35
2023-03-17T06:28:00.116Z,35.10
2023-03-17T06:30:26.571Z,29.70
2023-03-17T06:32:53.030Z,32.78
2023-03-17T06:35:19.537Z,31.88
2023-03-17T06:37:45.989Z,29.48
2023-03-17T06:40:14.433Z,30.92
2023-03-17T06:42:40.891Z,31.83
2023-03-17T06:45:07.977Z,29.95
2023-03-17T06:47:34.347Z,33.15
2023-03-17T06:50:00.729Z,35.67
2023-03-17T06:52:27.103Z,34.95
2023-03-17T06:54:53.573Z,31.13
2023-03-17T06:57:21.359Z,34.60
2023-03-17T06:59:47.806Z,37.83
2023-03-17T07:02:14.200Z,41.83
2023-03-17T07:04:40.619Z,33.95
2023-03-17T07:07:07.340Z,36.60
2023-03-17T07:09:33.996Z,35.95
2023-03-17T07:12:00.403Z,32.67
2023-03-17T07:14:28.169Z,41.05
2023-03-17T07:16:54.577Z,36.60
2023-03-17T07:19:21.047Z,31.23
2023-03-17T07:21:47.472Z,33.75
2023-03-17T07:24:13.876Z,32.38
2023-03-17T07:26:40.232Z,27.15
2023-03-17T07:29:06.657Z,37.00
2023-03-17T07:31:34.504Z,28.45
2023-03-17T07:34:00.969Z,30.23
2023-03-17T07:36:27.392Z,32.92
2023-03-17T07:38:53.847Z,34.47
2023-03-17T07:41:20.271Z,32.97
2023-03-17T07:43:46.657Z,31.75
2023-03-17T07:46:13.081Z,34.53
2023-03-17T07:48:41.305Z,29.13
2023-03-17T07:51:10.766Z,29.10
2023-03-17T07:53:37.177Z,30.83
2023-03-17T07:56:03.809Z,29.55
2023-03-17T07:58:30.227Z,35.00
2023-03-17T08:00:56.665Z,32.88
2023-03-17T08:03:31.822Z,31.20
2023-03-17T08:06:00.139Z,31.25
2023-03-17T08:08:27.489Z,25.70
2023-03-17T08:10:58.166Z,33.20
2023-03-17T08:13:24.598Z,32.42
2023-03-17T08:15:51.886Z,28.55
2023-03-17T08:18:18.304Z,21.45
2023-03-17T08:20:44.687Z,26.88
2023-03-17T08:23:12.477Z,24.75
2023-03-17T08:25:38.873Z,17.92
2023-03-17T08:28:05.869Z,19.58
2023-03-17T08:30:33.803Z,19.10
2023-03-17T08:33:00.509Z,26.60
2023-03-17T08:35:27.137Z,20.10
2023-03-17T08:37:55.757Z,21.27
2023-03-17T08:40:24.131Z,24.60
2023-03-17T08:42:50.553Z,22.90
2023-03-17T08:45:17.139Z,26.17
2023-03-17T08:47:43.800Z,21.20
2023-03-17T08:50:11.879Z,20.00
2023-03-17T08:52:38.279Z,17.02
2023-03-17T08:55:05.049Z,15.52
2023-03-17T08:57:32.851Z,23.17
2023-03-17T08:59:59.343Z,16.67
2023-03-17T09:02:25.834Z,17.90
2023-03-17T09:04:52.272Z,14.60
2023-03-17T09:07:18.721Z,15.73
2023-03-17T09:09:45.147Z,15.70
2023-03-17T09:12:11.613Z,14.45
2023-03-17T09:14:43.914Z,17.77
2023-03-17T09:17:11.141Z,16.08
2023-03-17T09:19:37.577Z,19.02
2023-03-17T09:22:04.058Z,17.58
2023-03-17T09:24:33.005Z,14.48
2023-03-17T09:26:59.487Z,16.35
2023-03-17T09:29:26.055Z,16.48
2023-03-17T09:31:54.193Z,13.20
2023-03-17T09:34:20.713Z,13.15
2023-03-17T09:36:47.148Z,16.35
2023-03-17T09:39:13.575Z,14.13
2023-03-17T09:41:53.929Z,14.55
2023-03-17T09:44:27.250Z,14.02
2023-03-17T09:46:59.452Z,16.90
2023-03-17T09:49:29.485Z,15.63
2023-03-17T09:51:55.933Z,14.63
2023-03-17T09:54:25.851Z,14.02
2023-03-17T09:56:56.863Z,13.13
2023-03-17T09:59:28.502Z,15.23
2023-03-17T10:01:56.455Z,18.58
2023-03-17T10:04:22.989Z,15.35
2023-03-17T10:06:49.600Z,15.30
2023-03-17T10:09:18.589Z,12.40
2023-03-17T10:11:46.801Z,13.23
2023-03-17T10:14:27.987Z,13.23
2023-03-17T10:16:58.365Z,12.48
2023-03-17T10:19:27.040Z,9.45
2023-03-17T10:21:55.726Z,16.08
2023-03-17T10:24:23.183Z,13.38
2023-03-17T10:26:50.328Z,11.35
2023-03-17T10:29:18.284Z,11.45
2023-03-17T10:31:44.712Z,11.38
2023-03-17T10:34:17.072Z,9.90
2023-03-17T10:36:44.860Z,13.98
2023-03-17T10:39:12.801Z,14.75
2023-03-17T10:41:40.585Z,8.05
2023-03-17T10:44:08.611Z,8.55
2023-03-17T10:46:35.037Z,14.05
2023-03-17T10:49:03.189Z,11.88
2023-03-17T10:51:32.445Z,12.50
2023-03-17T10:54:00.256Z,12.45
2023-03-17T10:56:27.339Z,14.18
2023-03-17T10:58:54.546Z,9.20
2023-03-17T11:01:21.858Z,10.48
2023-03-17T11:03:48.703Z,10.77
2023-03-17T11:06:16.794Z,7.53
2023-03-17T11:08:47.503Z,6.78
2023-03-17T11:11:22.535Z,6.55
2023-03-17T11:13:49.025Z,5.20
2023-03-17T11:16:18.722Z,6.40
2023-03-17T11:18:46.587Z,6.28
2023-03-17T11:21:15.657Z,7.28
2023-03-17T11:23:48.479Z,5.45
2023-03-17T11:26:29.738Z,6.32
2023-03-17T11:29:00.449Z,6.57
2023-03-17T11:31:28.696Z,6.60
2023-03-17T11:33:57.948Z,5.32
2023-03-17T11:36:35.413Z,6.50
2023-03-17T11:39:08.761Z,6.18
2023-03-17T11:41:40.914Z,7.43
2023-03-17T11:44:31.131Z,4.10
2023-03-17T11:47:01.269Z,5.45
2023-03-17T11:49:30.511Z,3.50
2023-03-17T11:52:00.548Z,4.20
2023-03-17T11:54:31.982Z,4.57
2023-03-17T11:57:00.441Z,5.90
2023-03-17T11:59:29.856Z,7.25
2023-03-17T12:01:58.124Z,4.75
2023-03-17T12:04:26.210Z,4.78
2023-03-17T12:06:56.808Z,4.05
2023-03-17T12:09:27.230Z,4.40
2023-03-17T12:11:55.821Z,5.15
2023-03-17T12:14:25.320Z,4.40
2023-03-17T12:19:19.462Z,4.22
2023-03-17T12:21:49.169Z,3.60
2023-03-17T12:24:18.429Z,4.13
2023-03-17T12:26:48.934Z,5.20
2023-03-17T12:29:18.152Z,5.25
2023-03-17T12:31:46.758Z,5.15
2023-03-17T12:34:15.133Z,7.15
2023-03-17T12:36:41.909Z,8.02
2023-03-17T12:39:09.002Z,8.35
2023-03-17T12:41:44.776Z,5.38
2023-03-17T12:44:15.632Z,3.85
2023-03-17T12:46:50.252Z,4.10
2023-03-17T12:49:34.669Z,7.15
2023-03-17T12:52:05.347Z,15.27
2023-03-17T12:54:33.452Z,4.68
2023-03-17T12:57:02.163Z,7.82
2023-03-17T12:59:28.646Z,4.27
2023-03-17T13:01:57.309Z,7.80
2023-03-17T13:04:27.144Z,4.10
2023-03-17T13:06:57.304Z,5.85
2023-03-17T13:09:31.316Z,4.60
2023-03-17T13:11:58.589Z,9.55
2023-03-17T13:14:26.349Z,4.57
2023-03-17T13:17:02.592Z,7.05
2023-03-17T13:19:33.127Z,5.60
2023-03-17T13:22:18.317Z,5.65
2023-03-17T13:24:46.334Z,3.13
2023-03-17T13:27:14.079Z,10.13
2023-03-17T13:29:49.300Z,7.55
2023-03-17T13:32:32.574Z,7.03
2023-03-17T13:35:19.860Z,9.55
2023-03-17T13:38:04.640Z,6.18
2023-03-17T13:40:35.190Z,4.35
2023-03-17T13:43:07.697Z,11.43
2023-03-17T13:45:36.535Z,10.75
2023-03-17T13:48:20.662Z,13.70
2023-03-17T13:50:47.081Z,4.95
2023-03-17T13:53:15.030Z,5.53
2023-03-17T13:55:41.969Z,10.98
2023-03-17T13:58:24.427Z,7.60
2023-03-17T14:00:56.242Z,6.93
2023-03-17T14:52:52.589Z,5.28
2023-03-17T14:55:19.200Z,6.78
2023-03-17T14:57:49.333Z,7.07
2023-03-17T15:00:29.883Z,8.90
2023-03-17T15:02:56.999Z,4.97
2023-03-17T15:05:25.260Z,5.80
2023-03-17T15:07:53.255Z,9.02
2023-03-17T15:10:20.647Z,6.55
2023-03-17T15:12:47.374Z,5.10
2023-03-17T15:15:19.661Z,10.93
2023-03-17T15:17:46.828Z,7.60
2023-03-17T15:23:29.058Z,8.00
2023-03-17T15:25:56.651Z,4.82
2023-03-17T15:28:24.694Z,5.07
2023-03-17T15:30:56.653Z,5.90
2023-03-17T15:35:50.842Z,7.45
2023-03-17T15:46:36.028Z,5.85
2023-03-17T15:49:05.380Z,8.95
2023-03-17T15:51:32.008Z,7.18
2023-03-17T15:53:58.660Z,4.38
2023-03-17T15:56:25.338Z,6.75
2023-03-17T15:58:51.808Z,5.75
2023-03-17T16:01:18.511Z,4.95
2023-03-17T16:03:46.779Z,6.13
2023-03-17T16:06:15.232Z,6.80
2023-03-17T16:08:41.696Z,5.88
2023-03-17T16:11:12.187Z,4.68
2023-03-17T16:13:38.598Z,6.18
2023-03-17T16:16:05.248Z,6.53
2023-03-17T16:18:33.298Z,5.93
2023-03-17T16:21:01.448Z,5.72
2023-03-17T16:23:29.622Z,8.00
2023-03-17T16:26:04.612Z,8.48
2023-03-17T16:28:38.466Z,8.15
2023-03-17T16:31:14.979Z,6.55
2023-03-17T16:33:41.432Z,7.60
2023-03-17T16:36:13.160Z,8.73
2023-03-17T16:38:39.541Z,6.13
2023-03-17T16:41:07.439Z,7.07
2023-03-17T16:43:35.132Z,5.95
2023-03-17T16:46:02.693Z,6.05
2023-03-17T16:48:29.359Z,9.95
2023-03-17T16:50:55.857Z,5.25
2023-03-17T16:53:23.869Z,5.35
2023-03-17T16:55:51.281Z,6.90
2023-03-17T16:58:18.610Z,7.32
2023-03-17T17:00:45.292Z,6.07
2023-03-17T17:03:12.131Z,6.07
2023-03-17T17:05:38.802Z,7.40
2023-03-17T17:08:05.346Z,11.30
2023-03-17T17:10:33.577Z,5.70
2023-03-17T17:13:00.328Z,7.82
2023-03-17T17:15:27.800Z,5.50
2023-03-17T17:17:56.030Z,6.38
2023-03-17T17:20:23.512Z,6.55
2023-03-17T17:22:50.179Z,7.57
2023-03-17T17:25:17.005Z,6.90
2023-03-17T17:27:45.646Z,14.88
2023-03-17T17:30:13.316Z,8.00
2023-03-17T17:32:39.765Z,8.05
2023-03-17T17:35:07.295Z,9.05
2023-03-17T17:37:33.926Z,13.82
2023-03-17T17:40:00.680Z,5.43
2023-03-17T17:42:30.310Z,7.63
2023-03-17T17:44:58.098Z,8.13
2023-03-17T17:47:24.469Z,10.65
2023-03-17T17:49:50.950Z,8.15
2023-03-17T17:52:17.539Z,5.32
2023-03-17T17:54:44.231Z,7.25
2023-03-17T17:57:11.016Z,8.20
2023-03-17T17:59:37.529Z,9.07
2023-03-17T18:02:05.557Z,7.07
2023-03-17T18:04:32.096Z,6.13
2023-03-17T18:06:58.480Z,7.75
2023-03-17T18:09:24.869Z,7.25
2023-03-17T18:11:51.287Z,5.32
2023-03-17T18:14:17.838Z,9.95
2023-03-17T18:16:44.571Z,8.55
2023-03-17T18:19:12.845Z,7.03
2023-03-17T18:21:39.256Z,9.38
2023-03-17T18:24:05.772Z,10.65
2023-03-17T18:26:32.897Z,10.32
2023-03-17T18:28:59.436Z,6.18
2023-03-17T18:31:27.485Z,7.75
2023-03-17T18:33:56.914Z,9.95
2023-03-17T18:36:25.255Z,13.15
2023-03-17T18:38:51.686Z,13.75
2023-03-17T18:41:18.486Z,9.38
2023-03-17T18:43:45.079Z,14.25
2023-03-17T18:46:11.684Z,10.25
2023-03-17T18:48:38.251Z,11.55
2023-03-17T18:51:04.910Z,7.78
2023-03-17T18:53:33.053Z,9.30
2023-03-17T18:55:59.515Z,10.00
2023-03-17T18:58:26.317Z,10.70
2023-03-17T19:00:53.091Z,11.30
2023-03-17T19:03:19.698Z,15.18
2023-03-17T19:05:46.365Z,10.88
2023-03-17T19:08:12.864Z,11.20
2023-03-17T19:10:43.435Z,14.35
2023-03-17T19:13:10.323Z,12.15
2023-03-17T19:15:39.631Z,10.98
2023-03-17T19:18:06.048Z,15.35
2023-03-17T19:20:32.915Z,12.27
2023-03-17T19:22:59.625Z,11.60
2023-03-17T19:25:26.202Z,14.85
2023-03-17T19:27:54.036Z,17.00
2023-03-17T19:30:20.565Z,13.15
2023-03-17T19:32:47.125Z,13.65
2023-03-17T19:35:13.582Z,12.88
2023-03-17T19:37:40.277Z,16.95
2023-03-17T19:40:07.916Z,12.02
2023-03-17T19:42:34.584Z,10.57
2023-03-17T19:45:02.405Z,12.77
2023-03-17T19:47:29.267Z,12.88
2023-03-17T19:49:55.687Z,12.20
2023-03-17T19:52:22.156Z,14.55
2023-03-17T19:54:48.638Z,12.20
2023-03-17T19:57:15.696Z,15.48
2023-03-17T19:59:42.263Z,12.65
2023-03-17T20:02:12.486Z,11.35
2023-03-17T20:04:38.967Z,14.07
2023-03-17T20:07:05.487Z,9.63
2023-03-17T20:09:32.158Z,11.40
2023-03-17T20:11:58.637Z,14.63
2023-03-17T20:14:25.089Z,17.20
2023-03-17T20:16:51.563Z,10.85
2023-03-17T20:19:20.230Z,12.63
2023-03-17T20:21:46.876Z,13.27
2023-03-17T20:24:13.635Z,13.45
2023-03-17T20:26:41.253Z,11.63
2023-03-17T20:29:07.995Z,12.55
2023-03-17T20:31:34.679Z,18.40
2023-03-17T20:34:01.134Z,9.93
2023-03-17T20:36:29.034Z,12.57
2023-03-17T20:38:55.437Z,13.95
2023-03-17T20:41:21.825Z,12.15
2023-03-17T20:43:48.333Z,12.90
2023-03-17T20:46:15.889Z,14.40
2023-03-17T20:48:42.542Z,13.02
2023-03-17T20:51:10.780Z,11.05
2023-03-17T20:53:38.681Z,12.80
2023-03-17T20:56:05.496Z,15.07
2023-03-17T20:58:31.934Z,12.73
2023-03-17T21:00:59.232Z,10.93
2023-03-17T21:03:25.612Z,13.43
2023-03-17T21:05:52.033Z,13.27
2023-03-17T21:08:18.430Z,14.30
2023-03-17T21:10:46.277Z,10.77
2023-03-17T21:13:12.760Z,13.75
2023-03-17T21:15:39.159Z,12.77
2023-03-17T21:18:05.560Z,13.23
2023-03-17T21:20:32.185Z,12.40
2023-03-17T21:22:58.799Z,13.82
2023-03-17T21:25:25.639Z,13.05
2023-03-17T21:27:53.483Z,13.93
2023-03-17T21:30:19.965Z,15.07
2023-03-17T21:32:46.529Z,15.10
2023-03-17T21:35:13.035Z,11.32
2023-03-17T21:37:39.424Z,11.95
2023-03-17T21:40:06.660Z,12.55
2023-03-17T21:42:33.207Z,11.82
2023-03-17T21:45:01.908Z,12.98
2023-03-17T21:47:28.329Z,13.93
2023-03-17T21:49:54.770Z,12.60
2023-03-17T21:52:21.282Z,12.55
2023-03-17T21:54:47.676Z,12.13
2023-03-17T21:57:14.041Z,13.27
2023-03-17T21:59:40.439Z,14.82
2023-03-17T22:02:10.445Z,13.02
2023-03-17T22:04:36.838Z,10.98
2023-03-17T22:07:03.281Z,16.25
2023-03-17T22:09:29.736Z,14.57
2023-03-17T22:11:56.159Z,13.07
2023-03-17T22:14:22.597Z,9.70
2023-03-17T22:16:49.403Z,12.07
2023-03-17T22:19:19.313Z,11.45
2023-03-17T22:21:47.069Z,10.15
2023-03-17T22:24:13.520Z,12.30
2023-03-17T22:26:40.059Z,12.60
2023-03-17T22:29:06.454Z,11.00
2023-03-17T22:31:32.962Z,12.73
2023-03-17T22:33:59.365Z,12.90
2023-03-17T22:36:27.676Z,12.15
2023-03-17T22:38:54.263Z,14.32
2023-03-17T22:41:22.340Z,10.38
2023-03-17T22:43:49.046Z,11.95
2023-03-17T22:46:15.582Z,9.43
2023-03-17T22:48:41.988Z,10.50
2023-03-17T22:51:09.464Z,11.95
2023-03-17T22:53:37.569Z,13.68
2023-03-17T22:56:04.250Z,12.00
2023-03-17T22:58:30.705Z,9.32
2023-03-17T23:00:57.222Z,11.57
2023-03-17T23:03:23.944Z,10.63
2023-03-17T23:05:51.728Z,13.30
2023-03-17T23:08:18.687Z,15.00
2023-03-17T23:10:46.836Z,11.57
2023-03-17T23:13:13.237Z,13.27
2023-03-17T23:15:39.601Z,11.25
2023-03-17T23:18:06.204Z,10.98
2023-03-17T23:20:33.031Z,14.57
2023-03-17T23:22:59.704Z,11.05
2023-03-17T23:25:26.133Z,12.35
2023-03-17T23:27:53.956Z,11.48
2023-03-17T23:30:20.381Z,12.15
2023-03-17T23:32:46.948Z,11.77
2023-03-17T23:35:13.736Z,13.50
2023-03-17T23:37:40.331Z,13.23
2023-03-17T23:40:08.087Z,17.73
2023-03-17T23:42:34.561Z,12.13
2023-03-17T23:45:02.883Z,13.88
2023-03-17T23:47:29.423Z,11.45
2023-03-17T23:49:55.943Z,10.80
2023-03-17T23:52:22.417Z,12.60
2023-03-17T23:54:48.904Z,11.82
2023-03-17T23:57:15.320Z,14.02
2023-03-17T23:59:41.991Z,11.63
